sensor_id;sensor_type;location;lat;lon;timestamp;P1;durP1;ratioP1;P2;durP2;ratioP2
79074;SDS011;68476;42.710;23.388;2023-04-03T00:00:59;7.35;;;4.93;;
79074;SDS011;68476;42.710;23.388;2023-04-03T00:03:25;9.48;;;4.95;;
79074;SDS011;68476;42.710;23.388;2023-04-03T00:05:51;11.50;;;7.18;;
79074;SDS011;68476;42.710;23.388;2023-04-03T00:08:16;11.25;;;6.78;;
79074;SDS011;68476;42.710;23.388;2023-04-03T00:10:42;12.20;;;7.40;;
79074;SDS011;68476;42.710;23.388;2023-04-03T00:13:07;13.50;;;7.20;;
79074;SDS011;68476;42.710;23.388;2023-04-03T00:15:33;15.10;;;6.70;;
79074;SDS011;68476;42.710;23.388;2023-04-03T00:18:00;11.30;;;6.38;;
79074;SDS011;68476;42.710;23.388;2023-04-03T00:20:25;10.40;;;6.90;;
79074;SDS011;68476;42.710;23.388;2023-04-03T00:22:52;11.02;;;7.45;;
79074;SDS011;68476;42.710;23.388;2023-04-03T00:25:18;17.58;;;8.02;;
79074;SDS011;68476;42.710;23.388;2023-04-03T00:27:43;15.05;;;7.50;;
79074;SDS011;68476;42.710;23.388;2023-04-03T00:30:10;9.18;;;5.85;;
79074;SDS011;68476;42.710;23.388;2023-04-03T00:32:38;6.65;;;4.90;;
79074;SDS011;68476;42.710;23.388;2023-04-03T00:35:03;7.72;;;4.70;;
79074;SDS011;68476;42.710;23.388;2023-04-03T00:37:30;6.30;;;4.82;;
79074;SDS011;68476;42.710;23.388;2023-04-03T00:39:55;8.15;;;5.10;;
79074;SDS011;68476;42.710;23.388;2023-04-03T00:42:21;8.63;;;5.32;;
79074;SDS011;68476;42.710;23.388;2023-04-03T00:47:13;10.85;;;6.00;;
79074;SDS011;68476;42.710;23.388;2023-04-03T00:49:41;8.05;;;5.05;;
79074;SDS011;68476;42.710;23.388;2023-04-03T00:52:08;10.38;;;5.80;;
79074;SDS011;68476;42.710;23.388;2023-04-03T00:54:39;10.32;;;5.47;;
79074;SDS011;68476;42.710;23.388;2023-04-03T00:57:06;8.85;;;5.95;;
79074;SDS011;68476;42.710;23.388;2023-04-03T00:59:33;8.13;;;5.75;;
79074;SDS011;68476;42.710;23.388;2023-04-03T01:02:00;8.65;;;5.53;;
79074;SDS011;68476;42.710;23.388;2023-04-03T01:07:01;8.65;;;5.68;;
79074;SDS011;68476;42.710;23.388;2023-04-03T01:09:31;9.27;;;5.70;;
79074;SDS011;68476;42.710;23.388;2023-04-03T01:14:44;7.22;;;5.22;;
79074;SDS011;68476;42.710;23.388;2023-04-03T01:22:48;11.80;;;6.15;;
79074;SDS011;68476;42.710;23.388;2023-04-03T01:25:35;8.25;;;4.68;;
79074;SDS011;68476;42.710;23.388;2023-04-03T01:28:07;7.28;;;5.45;;
79074;SDS011;68476;42.710;23.388;2023-04-03T01:30:41;8.65;;;5.10;;
79074;SDS011;68476;42.710;23.388;2023-04-03T01:33:12;7.30;;;4.93;;
79074;SDS011;68476;42.710;23.388;2023-04-03T01:35:37;6.88;;;4.53;;
79074;SDS011;68476;42.710;23.388;2023-04-03T01:38:03;8.27;;;5.60;;
79074;SDS011;68476;42.710;23.388;2023-04-03T01:40:28;9.20;;;6.20;;
79074;SDS011;68476;42.710;23.388;2023-04-03T01:42:54;8.07;;;5.45;;
79074;SDS011;68476;42.710;23.388;2023-04-03T01:45:20;8.10;;;5.20;;
79074;SDS011;68476;42.710;23.388;2023-04-03T01:47:45;10.65;;;5.85;;
79074;SDS011;68476;42.710;23.388;2023-04-03T01:50:11;8.70;;;5.93;;
79074;SDS011;68476;42.710;23.388;2023-04-03T01:52:36;9.27;;;6.28;;
79074;SDS011;68476;42.710;23.388;2023-04-03T01:55:01;10.55;;;6.57;;
79074;SDS011;68476;42.710;23.388;2023-04-03T01:57:27;11.20;;;6.65;;
79074;SDS011;68476;42.710;23.388;2023-04-03T01:59:52;8.02;;;6.10;;
79074;SDS011;68476;42.710;23.388;2023-04-03T02:02:17;8.73;;;6.43;;
79074;SDS011;68476;42.710;23.388;2023-04-03T02:04:45;9.57;;;6.10;;
79074;SDS011;68476;42.710;23.388;2023-04-03T02:07:11;8.00;;;5.82;;
79074;SDS011;68476;42.710;23.388;2023-04-03T02:09:36;8.65;;;6.35;;
79074;SDS011;68476;42.710;23.388;2023-04-03T02:12:01;9.63;;;6.63;;
79074;SDS011;68476;42.710;23.388;2023-04-03T02:14:27;9.63;;;6.88;;
79074;SDS011;68476;42.710;23.388;2023-04-03T02:16:52;11.77;;;6.65;;
79074;SDS011;68476;42.710;23.388;2023-04-03T02:19:18;12.52;;;7.57;;
79074;SDS011;68476;42.710;23.388;2023-04-03T02:21:44;11.48;;;7.90;;
79074;SDS011;68476;42.710;23.388;2023-04-03T02:24:09;12.07;;;7.93;;
79074;SDS011;68476;42.710;23.388;2023-04-03T02:26:34;13.05;;;8.35;;
79074;SDS011;68476;42.710;23.388;2023-04-03T02:29:00;12.00;;;7.18;;
79074;SDS011;68476;42.710;23.388;2023-04-03T02:31:25;10.95;;;7.32;;
79074;SDS011;68476;42.710;23.388;2023-04-03T02:33:51;12.73;;;7.72;;
79074;SDS011;68476;42.710;23.388;2023-04-03T02:36:16;12.38;;;8.90;;
79074;SDS011;68476;42.710;23.388;2023-04-03T02:38:41;14.48;;;9.25;;
79074;SDS011;68476;42.710;23.388;2023-04-03T02:41:08;13.43;;;8.63;;
79074;SDS011;68476;42.710;23.388;2023-04-03T02:43:35;13.40;;;8.77;;
79074;SDS011;68476;42.710;23.388;2023-04-03T02:46:01;12.57;;;8.55;;
79074;SDS011;68476;42.710;23.388;2023-04-03T02:48:26;13.57;;;8.90;;
79074;SDS011;68476;42.710;23.388;2023-04-03T02:50:52;12.98;;;8.88;;
79074;SDS011;68476;42.710;23.388;2023-04-03T02:53:18;14.52;;;8.57;;
79074;SDS011;68476;42.710;23.388;2023-04-03T02:55:44;11.50;;;7.55;;
79074;SDS011;68476;42.710;23.388;2023-04-03T02:58:09;9.68;;;6.68;;
79074;SDS011;68476;42.710;23.388;2023-04-03T03:00:35;11.18;;;7.45;;
79074;SDS011;68476;42.710;23.388;2023-04-03T03:03:00;12.73;;;8.68;;
79074;SDS011;68476;42.710;23.388;2023-04-03T03:05:26;12.25;;;8.65;;
79074;SDS011;68476;42.710;23.388;2023-04-03T03:07:52;12.77;;;8.00;;
79074;SDS011;68476;42.710;23.388;2023-04-03T03:10:18;10.85;;;7.70;;
79074;SDS011;68476;42.710;23.388;2023-04-03T03:12:44;11.43;;;7.63;;
79074;SDS011;68476;42.710;23.388;2023-04-03T03:15:09;12.90;;;8.82;;
79074;SDS011;68476;42.710;23.388;2023-04-03T03:17:35;11.52;;;8.25;;
79074;SDS011;68476;42.710;23.388;2023-04-03T03:20:01;12.45;;;8.40;;
79074;SDS011;68476;42.710;23.388;2023-04-03T03:22:27;14.23;;;8.20;;
79074;SDS011;68476;42.710;23.388;2023-04-03T03:24:53;14.48;;;8.30;;
79074;SDS011;68476;42.710;23.388;2023-04-03T03:27:18;17.05;;;10.52;;
79074;SDS011;68476;42.710;23.388;2023-04-03T03:29:44;16.73;;;10.88;;
79074;SDS011;68476;42.710;23.388;2023-04-03T03:32:09;17.10;;;10.50;;
79074;SDS011;68476;42.710;23.388;2023-04-03T03:34:35;14.27;;;9.43;;
79074;SDS011;68476;42.710;23.388;2023-04-03T03:37:00;18.33;;;10.32;;
79074;SDS011;68476;42.710;23.388;2023-04-03T03:39:26;13.63;;;9.00;;
79074;SDS011;68476;42.710;23.388;2023-04-03T03:41:51;16.13;;;10.13;;
79074;SDS011;68476;42.710;23.388;2023-04-03T03:44:18;14.65;;;9.48;;
79074;SDS011;68476;42.710;23.388;2023-04-03T03:46:44;14.95;;;8.75;;
79074;SDS011;68476;42.710;23.388;2023-04-03T03:49:10;18.83;;;9.95;;
79074;SDS011;68476;42.710;23.388;2023-04-03T03:51:36;16.35;;;10.35;;
79074;SDS011;68476;42.710;23.388;2023-04-03T03:54:02;16.30;;;9.95;;
79074;SDS011;68476;42.710;23.388;2023-04-03T03:56:28;23.05;;;13.52;;
79074;SDS011;68476;42.710;23.388;2023-04-03T03:58:53;20.30;;;10.93;;
79074;SDS011;68476;42.710;23.388;2023-04-03T04:01:21;17.05;;;11.25;;
79074;SDS011;68476;42.710;23.388;2023-04-03T04:03:47;15.68;;;10.35;;
79074;SDS011;68476;42.710;23.388;2023-04-03T04:06:13;13.32;;;9.25;;
79074;SDS011;68476;42.710;23.388;2023-04-03T04:08:39;11.35;;;8.30;;
79074;SDS011;68476;42.710;23.388;2023-04-03T04:11:05;16.05;;;9.20;;
79074;SDS011;68476;42.710;23.388;2023-04-03T04:13:30;15.32;;;9.75;;
79074;SDS011;68476;42.710;23.388;2023-04-03T04:15:55;15.60;;;9.45;;
79074;SDS011;68476;42.710;23.388;2023-04-03T04:18:21;16.23;;;10.73;;
79074;SDS011;68476;42.710;23.388;2023-04-03T04:20:47;16.42;;;9.13;;
79074;SDS011;68476;42.710;23.388;2023-04-03T04:23:13;13.07;;;7.80;;
79074;SDS011;68476;42.710;23.388;2023-04-03T04:25:39;15.13;;;9.50;;
79074;SDS011;68476;42.710;23.388;2023-04-03T04:28:04;11.35;;;6.90;;
79074;SDS011;68476;42.710;23.388;2023-04-03T04:30:30;11.07;;;7.05;;
79074;SDS011;68476;42.710;23.388;2023-04-03T04:32:55;10.25;;;7.70;;
79074;SDS011;68476;42.710;23.388;2023-04-03T04:35:20;12.55;;;7.50;;
79074;SDS011;68476;42.710;23.388;2023-04-03T04:37:46;9.02;;;6.47;;
79074;SDS011;68476;42.710;23.388;2023-04-03T04:40:11;10.13;;;6.25;;
79074;SDS011;68476;42.710;23.388;2023-04-03T04:42:37;11.23;;;7.95;;
79074;SDS011;68476;42.710;23.388;2023-04-03T04:45:02;12.85;;;8.00;;
79074;SDS011;68476;42.710;23.388;2023-04-03T04:47:28;11.18;;;7.93;;
79074;SDS011;68476;42.710;23.388;2023-04-03T04:49:54;14.30;;;8.13;;
79074;SDS011;68476;42.710;23.388;2023-04-03T04:52:20;13.57;;;9.00;;
79074;SDS011;68476;42.710;23.388;2023-04-03T04:54:45;18.55;;;9.20;;
79074;SDS011;68476;42.710;23.388;2023-04-03T04:57:11;13.50;;;8.32;;
79074;SDS011;68476;42.710;23.388;2023-04-03T04:59:37;14.25;;;8.77;;
79074;SDS011;68476;42.710;23.388;2023-04-03T05:02:03;13.98;;;7.97;;
79074;SDS011;68476;42.710;23.388;2023-04-03T05:04:28;17.40;;;9.85;;
79074;SDS011;68476;42.710;23.388;2023-04-03T05:06:54;12.60;;;8.38;;
79074;SDS011;68476;42.710;23.388;2023-04-03T05:09:19;11.48;;;8.90;;
79074;SDS011;68476;42.710;23.388;2023-04-03T05:11:45;13.27;;;9.65;;
79074;SDS011;68476;42.710;23.388;2023-04-03T05:14:11;16.75;;;9.30;;
79074;SDS011;68476;42.710;23.388;2023-04-03T05:16:37;15.55;;;9.38;;
79074;SDS011;68476;42.710;23.388;2023-04-03T05:19:02;14.20;;;9.68;;
79074;SDS011;68476;42.710;23.388;2023-04-03T05:21:28;14.73;;;9.77;;
79074;SDS011;68476;42.710;23.388;2023-04-03T05:23:57;21.13;;;9.20;;
79074;SDS011;68476;42.710;23.388;2023-04-03T05:26:24;16.40;;;9.45;;
79074;SDS011;68476;42.710;23.388;2023-04-03T05:28:50;14.65;;;10.00;;
79074;SDS011;68476;42.710;23.388;2023-04-03T05:31:16;18.33;;;11.65;;
79074;SDS011;68476;42.710;23.388;2023-04-03T05:33:41;20.73;;;11.23;;
79074;SDS011;68476;42.710;23.388;2023-04-03T05:36:07;16.80;;;11.45;;
79074;SDS011;68476;42.710;23.388;2023-04-03T05:38:33;18.95;;;10.85;;
79074;SDS011;68476;42.710;23.388;2023-04-03T05:40:58;17.00;;;9.35;;
79074;SDS011;68476;42.710;23.388;2023-04-03T05:43:24;22.23;;;10.63;;
79074;SDS011;68476;42.710;23.388;2023-04-03T05:45:50;16.13;;;9.65;;
79074;SDS011;68476;42.710;23.388;2023-04-03T05:48:16;16.45;;;9.27;;
79074;SDS011;68476;42.710;23.388;2023-04-03T05:50:41;14.50;;;9.73;;
79074;SDS011;68476;42.710;23.388;2023-04-03T05:53:07;18.02;;;9.68;;
79074;SDS011;68476;42.710;23.388;2023-04-03T05:55:47;18.75;;;10.60;;
79074;SDS011;68476;42.710;23.388;2023-04-03T05:58:13;21.55;;;10.23;;
79074;SDS011;68476;42.710;23.388;2023-04-03T06:00:38;26.52;;;20.13;;
79074;SDS011;68476;42.710;23.388;2023-04-03T06:03:05;20.83;;;14.93;;
79074;SDS011;68476;42.710;23.388;2023-04-03T06:05:31;18.38;;;11.73;;
79074;SDS011;68476;42.710;23.388;2023-04-03T06:07:56;15.07;;;10.45;;
79074;SDS011;68476;42.710;23.388;2023-04-03T06:10:22;21.20;;;10.95;;
79074;SDS011;68476;42.710;23.388;2023-04-03T06:12:48;16.90;;;10.38;;
79074;SDS011;68476;42.710;23.388;2023-04-03T06:15:13;14.85;;;10.45;;
79074;SDS011;68476;42.710;23.388;2023-04-03T06:17:39;16.48;;;10.35;;
79074;SDS011;68476;42.710;23.388;2023-04-03T06:20:05;14.60;;;9.23;;
79074;SDS011;68476;42.710;23.388;2023-04-03T06:22:31;17.60;;;10.02;;
79074;SDS011;68476;42.710;23.388;2023-04-03T06:24:57;15.48;;;10.38;;
79074;SDS011;68476;42.710;23.388;2023-04-03T06:27:22;12.88;;;8.90;;
79074;SDS011;68476;42.710;23.388;2023-04-03T06:29:48;11.27;;;8.50;;
79074;SDS011;68476;42.710;23.388;2023-04-03T06:32:14;10.55;;;7.97;;
79074;SDS011;68476;42.710;23.388;2023-04-03T06:34:40;8.25;;;7.15;;
79074;SDS011;68476;42.710;23.388;2023-04-03T06:37:09;12.18;;;7.50;;
79074;SDS011;68476;42.710;23.388;2023-04-03T06:39:39;12.55;;;7.45;;
79074;SDS011;68476;42.710;23.388;2023-04-03T06:42:05;13.88;;;8.63;;
79074;SDS011;68476;42.710;23.388;2023-04-03T06:44:30;15.82;;;8.60;;
79074;SDS011;68476;42.710;23.388;2023-04-03T06:46:56;13.75;;;8.70;;
79074;SDS011;68476;42.710;23.388;2023-04-03T06:49:21;9.98;;;6.00;;
79074;SDS011;68476;42.710;23.388;2023-04-03T06:51:47;14.93;;;8.95;;
79074;SDS011;68476;42.710;23.388;2023-04-03T06:54:12;17.58;;;10.07;;
79074;SDS011;68476;42.710;23.388;2023-04-03T06:56:37;14.50;;;9.85;;
79074;SDS011;68476;42.710;23.388;2023-04-03T06:59:03;18.90;;;10.25;;
79074;SDS011;68476;42.710;23.388;2023-04-03T07:01:28;15.38;;;10.00;;
79074;SDS011;68476;42.710;23.388;2023-04-03T07:03:55;13.90;;;9.55;;
79074;SDS011;68476;42.710;23.388;2023-04-03T07:06:21;16.85;;;10.35;;
79074;SDS011;68476;42.710;23.388;2023-04-03T07:08:46;15.43;;;10.32;;
79074;SDS011;68476;42.710;23.388;2023-04-03T07:11:14;20.10;;;12.38;;
79074;SDS011;68476;42.710;23.388;2023-04-03T07:13:40;19.48;;;11.70;;
79074;SDS011;68476;42.710;23.388;2023-04-03T07:16:06;16.10;;;11.80;;
79074;SDS011;68476;42.710;23.388;2023-04-03T07:18:32;18.45;;;11.73;;
79074;SDS011;68476;42.710;23.388;2023-04-03T07:20:57;20.65;;;12.32;;
79074;SDS011;68476;42.710;23.388;2023-04-03T07:23:23;16.88;;;11.77;;
79074;SDS011;68476;42.710;23.388;2023-04-03T07:25:49;17.15;;;11.00;;
79074;SDS011;68476;42.710;23.388;2023-04-03T07:28:16;15.90;;;10.75;;
79074;SDS011;68476;42.710;23.388;2023-04-03T07:30:47;13.95;;;9.93;;
79074;SDS011;68476;42.710;23.388;2023-04-03T07:33:14;12.93;;;9.70;;
79074;SDS011;68476;42.710;23.388;2023-04-03T07:35:41;14.80;;;10.15;;
79074;SDS011;68476;42.710;23.388;2023-04-03T07:38:07;16.85;;;10.07;;
79074;SDS011;68476;42.710;23.388;2023-04-03T07:40:33;14.27;;;10.45;;
79074;SDS011;68476;42.710;23.388;2023-04-03T07:42:59;14.18;;;9.60;;
79074;SDS011;68476;42.710;23.388;2023-04-03T07:45:24;15.32;;;10.50;;
79074;SDS011;68476;42.710;23.388;2023-04-03T07:47:50;14.70;;;10.93;;
79074;SDS011;68476;42.710;23.388;2023-04-03T07:50:16;13.98;;;10.85;;
79074;SDS011;68476;42.710;23.388;2023-04-03T07:52:42;18.60;;;12.98;;
79074;SDS011;68476;42.710;23.388;2023-04-03T07:55:08;18.15;;;11.45;;
79074;SDS011;68476;42.710;23.388;2023-04-03T07:57:34;16.40;;;10.65;;
79074;SDS011;68476;42.710;23.388;2023-04-03T08:00:00;13.80;;;10.80;;
79074;SDS011;68476;42.710;23.388;2023-04-03T08:02:26;16.15;;;11.48;;
79074;SDS011;68476;42.710;23.388;2023-04-03T08:04:51;14.73;;;11.45;;
79074;SDS011;68476;42.710;23.388;2023-04-03T08:07:17;15.40;;;10.50;;
79074;SDS011;68476;42.710;23.388;2023-04-03T08:09:42;15.70;;;10.70;;
79074;SDS011;68476;42.710;23.388;2023-04-03T08:12:09;14.48;;;9.98;;
79074;SDS011;68476;42.710;23.388;2023-04-03T08:14:36;14.15;;;9.82;;
79074;SDS011;68476;42.710;23.388;2023-04-03T08:17:02;16.27;;;10.27;;
79074;SDS011;68476;42.710;23.388;2023-04-03T08:19:29;13.57;;;9.65;;
79074;SDS011;68476;42.710;23.388;2023-04-03T08:21:56;14.25;;;10.18;;
79074;SDS011;68476;42.710;23.388;2023-04-03T08:24:23;14.88;;;10.15;;
79074;SDS011;68476;42.710;23.388;2023-04-03T08:26:49;10.52;;;8.57;;
79074;SDS011;68476;42.710;23.388;2023-04-03T08:29:14;14.20;;;9.77;;
79074;SDS011;68476;42.710;23.388;2023-04-03T08:31:40;18.05;;;10.32;;
79074;SDS011;68476;42.710;23.388;2023-04-03T08:34:05;10.05;;;7.40;;
79074;SDS011;68476;42.710;23.388;2023-04-03T08:36:31;14.63;;;9.60;;
79074;SDS011;68476;42.710;23.388;2023-04-03T08:38:57;11.13;;;8.88;;
79074;SDS011;68476;42.710;23.388;2023-04-03T08:51:56;14.52;;;9.23;;
79074;SDS011;68476;42.710;23.388;2023-04-03T08:54:26;17.00;;;10.70;;
79074;SDS011;68476;42.710;23.388;2023-04-03T08:56:55;17.75;;;11.52;;
79074;SDS011;68476;42.710;23.388;2023-04-03T08:59:44;16.13;;;10.23;;
79074;SDS011;68476;42.710;23.388;2023-04-03T09:02:20;17.27;;;11.13;;
79074;SDS011;68476;42.710;23.388;2023-04-03T09:04:57;17.50;;;10.98;;
79074;SDS011;68476;42.710;23.388;2023-04-03T09:07:30;14.60;;;10.63;;
79074;SDS011;68476;42.710;23.388;2023-04-03T09:10:03;14.60;;;10.57;;
79074;SDS011;68476;42.710;23.388;2023-04-03T09:12:33;18.00;;;10.80;;
79074;SDS011;68476;42.710;23.388;2023-04-03T09:20:21;15.32;;;10.73;;
79074;SDS011;68476;42.710;23.388;2023-04-03T09:22:55;14.52;;;9.50;;
79074;SDS011;68476;42.710;23.388;2023-04-03T09:25:21;14.10;;;9.15;;
79074;SDS011;68476;42.710;23.388;2023-04-03T09:27:59;11.75;;;9.57;;
79074;SDS011;68476;42.710;23.388;2023-04-03T09:30:26;18.05;;;10.27;;
79074;SDS011;68476;42.710;23.388;2023-04-03T09:32:53;13.75;;;9.32;;
79074;SDS011;68476;42.710;23.388;2023-04-03T09:35:25;14.40;;;10.05;;
79074;SDS011;68476;42.710;23.388;2023-04-03T09:37:53;15.82;;;9.63;;
79074;SDS011;68476;42.710;23.388;2023-04-03T09:42:56;14.30;;;9.60;;
79074;SDS011;68476;42.710;23.388;2023-04-03T09:45:33;17.08;;;9.50;;
79074;SDS011;68476;42.710;23.388;2023-04-03T09:48:08;11.60;;;8.82;;
79074;SDS011;68476;42.710;23.388;2023-04-03T10:01:27;15.23;;;9.45;;
79074;SDS011;68476;42.710;23.388;2023-04-03T10:06:34;14.63;;;9.73;;
79074;SDS011;68476;42.710;23.388;2023-04-03T10:09:06;14.30;;;9.45;;
79074;SDS011;68476;42.710;23.388;2023-04-03T10:12:11;11.10;;;7.85;;
79074;SDS011;68476;42.710;23.388;2023-04-03T10:14:40;14.18;;;9.32;;
79074;SDS011;68476;42.710;23.388;2023-04-03T10:25:52;12.63;;;7.60;;
79074;SDS011;68476;42.710;23.388;2023-04-03T10:31:28;12.80;;;7.90;;
79074;SDS011;68476;42.710;23.388;2023-04-03T10:34:04;12.40;;;7.47;;
79074;SDS011;68476;42.710;23.388;2023-04-03T10:37:10;15.23;;;7.90;;
79074;SDS011;68476;42.710;23.388;2023-04-03T10:45:20;15.95;;;7.65;;
79074;SDS011;68476;42.710;23.388;2023-04-03T10:55:37;12.20;;;7.85;;
79074;SDS011;68476;42.710;23.388;2023-04-03T10:58:10;12.50;;;7.25;;
79074;SDS011;68476;42.710;23.388;2023-04-03T11:01:08;12.80;;;8.45;;
79074;SDS011;68476;42.710;23.388;2023-04-03T11:03:42;11.27;;;6.97;;
79074;SDS011;68476;42.710;23.388;2023-04-03T11:06:11;10.13;;;5.90;;
79074;SDS011;68476;42.710;23.388;2023-04-03T11:08:50;7.10;;;4.93;;
79074;SDS011;68476;42.710;23.388;2023-04-03T11:11:22;10.20;;;5.03;;
79074;SDS011;68476;42.710;23.388;2023-04-03T11:16:53;7.07;;;4.72;;
79074;SDS011;68476;42.710;23.388;2023-04-03T11:22:09;6.88;;;4.82;;
79074;SDS011;68476;42.710;23.388;2023-04-03T11:24:42;5.10;;;3.83;;
79074;SDS011;68476;42.710;23.388;2023-04-03T11:27:15;6.03;;;3.90;;
79074;SDS011;68476;42.710;23.388;2023-04-03T11:29:47;5.80;;;4.00;;
79074;SDS011;68476;42.710;23.388;2023-04-03T11:34:51;9.77;;;7.28;;
79074;SDS011;68476;42.710;23.388;2023-04-03T11:40:02;24.05;;;14.57;;
79074;SDS011;68476;42.710;23.388;2023-04-03T11:47:45;6.18;;;5.15;;
79074;SDS011;68476;42.710;23.388;2023-04-03T12:05:48;7.38;;;4.32;;
79074;SDS011;68476;42.710;23.388;2023-04-03T12:08:25;7.15;;;4.93;;
79074;SDS011;68476;42.710;23.388;2023-04-03T12:16:27;6.05;;;4.30;;
79074;SDS011;68476;42.710;23.388;2023-04-03T12:18:54;7.50;;;5.20;;
79074;SDS011;68476;42.710;23.388;2023-04-03T12:35:01;6.95;;;4.22;;
79074;SDS011;68476;42.710;23.388;2023-04-03T12:45:46;6.10;;;4.18;;
79074;SDS011;68476;42.710;23.388;2023-04-03T12:48:17;6.03;;;5.20;;
79074;SDS011;68476;42.710;23.388;2023-04-03T12:50:49;5.82;;;4.93;;
79074;SDS011;68476;42.710;23.388;2023-04-03T12:53:16;8.60;;;5.93;;
79074;SDS011;68476;42.710;23.388;2023-04-03T12:55:45;11.50;;;6.38;;
79074;SDS011;68476;42.710;23.388;2023-04-03T12:59:13;11.10;;;8.52;;
79074;SDS011;68476;42.710;23.388;2023-04-03T13:02:51;9.15;;;7.10;;
79074;SDS011;68476;42.710;23.388;2023-04-03T13:06:27;9.38;;;7.93;;
79074;SDS011;68476;42.710;23.388;2023-04-03T13:10:20;10.55;;;8.93;;
79074;SDS011;68476;42.710;23.388;2023-04-03T13:13:58;9.73;;;8.32;;
79074;SDS011;68476;42.710;23.388;2023-04-03T13:17:22;9.40;;;7.82;;
79074;SDS011;68476;42.710;23.388;2023-04-03T13:20:47;10.13;;;7.40;;
79074;SDS011;68476;42.710;23.388;2023-04-03T13:24:22;11.60;;;8.32;;
79074;SDS011;68476;42.710;23.388;2023-04-03T13:27:10;8.23;;;6.93;;
79074;SDS011;68476;42.710;23.388;2023-04-03T13:29:37;10.65;;;7.95;;
79074;SDS011;68476;42.710;23.388;2023-04-03T13:32:04;10.65;;;8.57;;
79074;SDS011;68476;42.710;23.388;2023-04-03T13:34:36;12.32;;;8.88;;
79074;SDS011;68476;42.710;23.388;2023-04-03T13:37:06;9.40;;;8.32;;
79074;SDS011;68476;42.710;23.388;2023-04-03T13:39:39;8.27;;;7.18;;
79074;SDS011;68476;42.710;23.388;2023-04-03T13:42:21;9.00;;;7.28;;
79074;SDS011;68476;42.710;23.388;2023-04-03T13:44:49;9.00;;;7.57;;
79074;SDS011;68476;42.710;23.388;2023-04-03T13:47:39;10.27;;;7.90;;
79074;SDS011;68476;42.710;23.388;2023-04-03T13:52:40;8.90;;;7.60;;
79074;SDS011;68476;42.710;23.388;2023-04-03T13:55:22;8.95;;;7.05;;
79074;SDS011;68476;42.710;23.388;2023-04-03T13:57:58;7.07;;;6.22;;
79074;SDS011;68476;42.710;23.388;2023-04-03T14:02:53;7.18;;;6.22;;
79074;SDS011;68476;42.710;23.388;2023-04-03T14:05:21;6.55;;;5.43;;
79074;SDS011;68476;42.710;23.388;2023-04-03T14:07:48;5.28;;;4.78;;
79074;SDS011;68476;42.710;23.388;2023-04-03T14:10:13;6.25;;;4.72;;
79074;SDS011;68476;42.710;23.388;2023-04-03T14:12:39;4.75;;;4.25;;
79074;SDS011;68476;42.710;23.388;2023-04-03T14:15:27;5.63;;;4.18;;
79074;SDS011;68476;42.710;23.388;2023-04-03T14:17:56;4.20;;;3.80;;
79074;SDS011;68476;42.710;23.388;2023-04-03T14:20:23;5.53;;;4.25;;
79074;SDS011;68476;42.710;23.388;2023-04-03T14:22:50;5.80;;;5.20;;
79074;SDS011;68476;42.710;23.388;2023-04-03T14:25:16;6.75;;;5.80;;
79074;SDS011;68476;42.710;23.388;2023-04-03T14:27:44;9.15;;;5.90;;
79074;SDS011;68476;42.710;23.388;2023-04-03T14:30:15;7.35;;;5.85;;
79074;SDS011;68476;42.710;23.388;2023-04-03T14:32:43;8.05;;;6.28;;
79074;SDS011;68476;42.710;23.388;2023-04-03T14:35:08;7.13;;;5.95;;
79074;SDS011;68476;42.710;23.388;2023-04-03T14:37:34;8.75;;;6.13;;
79074;SDS011;68476;42.710;23.388;2023-04-03T14:40:00;7.53;;;6.35;;
79074;SDS011;68476;42.710;23.388;2023-04-03T14:42:32;10.35;;;7.00;;
79074;SDS011;68476;42.710;23.388;2023-04-03T14:45:00;8.43;;;6.40;;
79074;SDS011;68476;42.710;23.388;2023-04-03T14:47:28;9.85;;;7.30;;
79074;SDS011;68476;42.710;23.388;2023-04-03T14:49:54;10.63;;;7.30;;
79074;SDS011;68476;42.710;23.388;2023-04-03T14:52:21;13.80;;;9.55;;
79074;SDS011;68476;42.710;23.388;2023-04-03T14:54:55;15.88;;;10.23;;
79074;SDS011;68476;42.710;23.388;2023-04-03T14:57:21;16.38;;;10.35;;
79074;SDS011;68476;42.710;23.388;2023-04-03T14:59:50;10.63;;;7.72;;
79074;SDS011;68476;42.710;23.388;2023-04-03T15:02:26;8.68;;;5.90;;
79074;SDS011;68476;42.710;23.388;2023-04-03T15:04:52;6.20;;;5.13;;
79074;SDS011;68476;42.710;23.388;2023-04-03T15:07:19;6.70;;;5.50;;
79074;SDS011;68476;42.710;23.388;2023-04-03T15:09:45;5.20;;;4.60;;
79074;SDS011;68476;42.710;23.388;2023-04-03T15:12:10;9.57;;;8.38;;
79074;SDS011;68476;42.710;23.388;2023-04-03T15:14:36;14.55;;;10.07;;
79074;SDS011;68476;42.710;23.388;2023-04-03T15:17:02;11.13;;;7.60;;
79074;SDS011;68476;42.710;23.388;2023-04-03T15:19:32;10.95;;;7.75;;
79074;SDS011;68476;42.710;23.388;2023-04-03T15:22:02;8.88;;;6.45;;
79074;SDS011;68476;42.710;23.388;2023-04-03T15:24:28;5.93;;;4.72;;
79074;SDS011;68476;42.710;23.388;2023-04-03T15:26:53;5.93;;;4.80;;
79074;SDS011;68476;42.710;23.388;2023-04-03T15:29:19;6.72;;;4.88;;
79074;SDS011;68476;42.710;23.388;2023-04-03T15:31:44;6.57;;;5.20;;
79074;SDS011;68476;42.710;23.388;2023-04-03T15:34:10;8.77;;;5.88;;
79074;SDS011;68476;42.710;23.388;2023-04-03T15:36:35;10.32;;;6.78;;
79074;SDS011;68476;42.710;23.388;2023-04-03T15:39:01;7.20;;;5.68;;
79074;SDS011;68476;42.710;23.388;2023-04-03T15:41:26;7.47;;;6.25;;
79074;SDS011;68476;42.710;23.388;2023-04-03T15:43:52;7.10;;;5.65;;
79074;SDS011;68476;42.710;23.388;2023-04-03T15:46:17;7.60;;;5.80;;
79074;SDS011;68476;42.710;23.388;2023-04-03T15:48:42;7.97;;;6.05;;
79074;SDS011;68476;42.710;23.388;2023-04-03T15:51:09;7.85;;;5.85;;
79074;SDS011;68476;42.710;23.388;2023-04-03T15:53:35;9.88;;;6.70;;
79074;SDS011;68476;42.710;23.388;2023-04-03T15:56:00;9.15;;;6.18;;
79074;SDS011;68476;42.710;23.388;2023-04-03T15:58:26;9.52;;;6.60;;
79074;SDS011;68476;42.710;23.388;2023-04-03T16:00:51;6.55;;;5.75;;
79074;SDS011;68476;42.710;23.388;2023-04-03T16:03:17;7.82;;;6.25;;
79074;SDS011;68476;42.710;23.388;2023-04-03T16:05:44;6.97;;;5.43;;
79074;SDS011;68476;42.710;23.388;2023-04-03T16:08:10;7.55;;;5.80;;
79074;SDS011;68476;42.710;23.388;2023-04-03T16:10:36;7.13;;;5.40;;
79074;SDS011;68476;42.710;23.388;2023-04-03T16:13:03;5.82;;;5.20;;
79074;SDS011;68476;42.710;23.388;2023-04-03T16:15:29;7.32;;;4.47;;
79074;SDS011;68476;42.710;23.388;2023-04-03T16:17:55;5.68;;;4.78;;
79074;SDS011;68476;42.710;23.388;2023-04-03T16:20:23;5.50;;;4.43;;
79074;SDS011;68476;42.710;23.388;2023-04-03T16:22:49;5.20;;;3.78;;
79074;SDS011;68476;42.710;23.388;2023-04-03T16:25:15;7.30;;;4.88;;
79074;SDS011;68476;42.710;23.388;2023-04-03T16:27:40;6.88;;;4.32;;
79074;SDS011;68476;42.710;23.388;2023-04-03T16:30:06;6.05;;;4.65;;
79074;SDS011;68476;42.710;23.388;2023-04-03T16:32:32;5.10;;;4.50;;
79074;SDS011;68476;42.710;23.388;2023-04-03T16:34:58;5.55;;;4.07;;
79074;SDS011;68476;42.710;23.388;2023-04-03T16:37:24;4.63;;;3.97;;
79074;SDS011;68476;42.710;23.388;2023-04-03T16:39:50;4.95;;;3.90;;
79074;SDS011;68476;42.710;23.388;2023-04-03T16:42:16;5.18;;;3.85;;
79074;SDS011;68476;42.710;23.388;2023-04-03T16:44:41;5.22;;;3.70;;
79074;SDS011;68476;42.710;23.388;2023-04-03T16:47:07;4.32;;;3.60;;
79074;SDS011;68476;42.710;23.388;2023-04-03T16:49:33;4.75;;;3.28;;